Airfield :
LOGIN :

Register | Disclaimer

   EN    FR    IT 

 










Legend :    VFR   Marginal VFR   IFR   Intensive IFR   Very Intensive IFR
Visi :
Ceiling :
>= 8 km
>= 3000ft
5 to 8 km
1000 to 3000 ft
1500m to 5 km
500 to 1000 ft
800 to 1500m
200 to 500 ft
< 800m
< 200 ft
Symbols :   Thunderstorms  Fog  Heavy snow  Heavy precipitations  Wind > 20 kt
SIGMETs :     Misc.  Thunderstorms  Icing  Turbulence  Mountain Waves  Volcanic Ashes







- Airport Elevation : 280 ft
- IATA code : FAE


EKVG - Vagar

CURRENT METAR :
  • 190150Z AUTO 14010KT 2300 +DZ SCT004/// OVC013/// 09/09 Q1022

EXPIRED METARs :
  • 190120Z AUTO 13011KT 2800 +DZ OVC005/// 08/08 Q1022
  • 190050Z AUTO 12011KT 3400 DZ OVC006/// 08/08 Q1023
  • 190020Z AUTO 12013KT 3400 -RA OVC007/// 08/08 Q1023
  • 182350Z AUTO 13015KT 3000 -RA OVC007/// 08/07 Q1024
  • 182320Z AUTO 13016KT 3500 -RA OVC005/// 08/07 Q1024

Expired Forecast.
No reported NOTAMs for that airfield.



MET'MAP, your aeronautical weather chart ! - Copyright ORBIFLY December 2007 - Disclaimer

ORBIFLY MET'MAP TEAM :

Programming & Development : Alexandra Zaïnal
Concept & Development : Baudouin d'Aumeries
Co-Development & Prog : Marc-Olivier Méhu
Technical & hardware support : Manuel Goepfert

Contact : metmap@orbifly.com




SOURCES & CREDITS :

   NOAA